Time;durP1;ratioP1;P1;durP2;ratioP2;P2;SDS_P1;SDS_P2;PMS_P1;PMS_P2;Temp;Humidity;BMP_temperature;BMP_pressure;BME280_temperature;BME280_humidity;BME280_pressure;Samples;Min_cycle;Max_cycle;Signal;HPM_P1;HPM_P2
2023/08/07 00:02:25;;;;;;;4.38;2.17;;;14.70;99.90;;;;;;5035135;28;20051;-80
2023/08/07 00:04:51;;;;;;;3.45;2.33;;;14.80;99.90;;;;;;5031385;28;20046;-80
2023/08/07 00:07:18;;;;;;;10.85;1.80;;;14.80;99.90;;;;;;5037850;28;20046;-80
2023/08/07 00:09:43;;;;;;;2.10;1.65;;;14.70;99.90;;;;;;5048637;28;20094;-81
2023/08/07 00:12:09;;;;;;;7.25;1.98;;;14.80;99.90;;;;;;5046931;28;20087;-80
2023/08/07 00:14:35;;;;;;;3.88;1.75;;;14.70;99.90;;;;;;5030376;28;20046;-80
2023/08/07 00:17:00;;;;;;;4.20;2.03;;;14.60;99.90;;;;;;5031160;28;20474;-80
2023/08/07 00:19:26;;;;;;;3.28;2.03;;;14.70;99.90;;;;;;5044122;28;20120;-80
2023/08/07 00:21:51;;;;;;;2.45;2.05;;;14.60;99.90;;;;;;5048278;28;20117;-81
2023/08/07 00:24:17;;;;;;;3.50;1.45;;;14.60;99.90;;;;;;5040448;28;20503;-81
2023/08/07 00:26:43;;;;;;;2.45;2.25;;;14.50;99.90;;;;;;5030694;28;20045;-80
2023/08/07 00:29:08;;;;;;;5.70;1.95;;;14.50;99.90;;;;;;5030371;28;20035;-81
2023/08/07 00:31:34;;;;;;;3.60;1.83;;;14.50;99.90;;;;;;5048339;28;20043;-80
2023/08/07 00:34:00;;;;;;;4.78;2.00;;;14.90;99.90;;;;;;5012402;28;20473;-80
2023/08/07 00:36:28;;;;;;;6.70;2.00;;;14.50;99.90;;;;;;5041709;28;20391;-80
2023/08/07 00:38:54;;;;;;;5.25;1.92;;;14.50;99.90;;;;;;5048536;28;20079;-80
2023/08/07 00:41:20;;;;;;;3.53;1.55;;;15.00;99.90;;;;;;5039722;28;20519;-80
2023/08/07 00:43:45;;;;;;;4.60;1.33;;;14.40;99.90;;;;;;5030380;28;20078;-81
2023/08/07 00:46:11;;;;;;;3.65;1.58;;;14.40;99.90;;;;;;5034927;28;20050;-80
2023/08/07 00:48:37;;;;;;;4.78;2.17;;;14.40;99.90;;;;;;5051661;28;20055;-80
2023/08/07 00:51:04;;;;;;;2.55;2.03;;;14.30;99.90;;;;;;5051180;28;20040;-80
2023/08/07 00:53:30;;;;;;;4.10;1.73;;;14.40;99.90;;;;;;5038015;28;20524;-80
2023/08/07 00:55:57;;;;;;;3.47;1.42;;;14.50;99.90;;;;;;5034165;28;20125;-80
2023/08/07 00:58:23;;;;;;;4.22;1.67;;;15.40;99.90;;;;;;5041765;28;20164;-81
2023/08/07 01:00:49;;;;;;;4.10;1.80;;;14.30;99.90;;;;;;5051530;28;20115;-80
2023/08/07 01:03:14;;;;;;;2.80;1.60;;;14.50;99.90;;;;;;5048583;28;20100;-80
2023/08/07 01:05:40;;;;;;;3.55;1.42;;;14.20;99.90;;;;;;5034072;28;20073;-80
2023/08/07 01:08:06;;;;;;;2.50;1.50;;;14.90;99.90;;;;;;5033821;28;20043;-81
2023/08/07 01:10:58;;;;;;;5.47;1.63;;;14.20;99.90;;;;;;5046107;28;20223;-80
2023/08/07 01:13:39;;;;;;;5.82;2.03;;;15.40;99.90;;;;;;5027564;28;20048;-80
2023/08/07 01:16:21;;;;;;;3.85;1.70;;;14.10;99.90;;;;;;5032187;28;20050;-80
2023/08/07 01:18:49;;;;;;;3.60;1.50;;;14.10;99.90;;;;;;5026979;28;20046;-80
2023/08/07 01:21:18;;;;;;;6.65;1.50;;;14.10;99.90;;;;;;5033480;28;20094;-80
2023/08/07 01:23:48;;;;;;;6.68;1.75;;;14.10;99.90;;;;;;5033766;28;20046;-80
2023/08/07 01:26:19;;;;;;;5.47;2.30;;;14.00;99.90;;;;;;5036901;28;20042;-81
2023/08/07 01:28:57;;;;;;;5.32;1.70;;;14.00;99.90;;;;;;5060954;28;20032;-80
2023/08/07 01:31:25;;;;;;;2.38;1.77;;;15.10;99.90;;;;;;5048128;28;20044;-80
2023/08/07 01:34:01;;;;;;;3.25;1.98;;;14.30;99.90;;;;;;5033455;28;20455;-80
2023/08/07 01:36:29;;;;;;;7.28;2.10;;;13.90;99.90;;;;;;5040750;28;20344;-80
2023/08/07 01:38:58;;;;;;;6.85;1.70;;;13.90;99.90;;;;;;5050176;28;20044;-80
2023/08/07 01:41:24;;;;;;;6.25;2.15;;;13.90;99.90;;;;;;5043668;28;20076;-81
2023/08/07 01:43:50;;;;;;;5.40;2.10;;;13.90;99.90;;;;;;5033164;28;20044;-80
2023/08/07 01:46:16;;;;;;;7.65;2.47;;;13.90;99.90;;;;;;5032591;28;20129;-80
2023/08/07 01:48:42;;;;;;;7.22;2.50;;;13.90;99.90;;;;;;5050832;28;20472;-80
2023/08/07 01:51:07;;;;;;;5.95;2.50;;;13.90;99.90;;;;;;5050694;28;20047;-79
2023/08/07 01:53:33;;;;;;;9.65;2.40;;;13.90;99.90;;;;;;5037582;28;20048;-81
2023/08/07 01:55:58;;;;;;;11.40;2.30;;;13.90;99.90;;;;;;5032905;28;20490;-80
2023/08/07 01:58:24;;;;;;;10.20;2.38;;;13.90;99.90;;;;;;5033064;28;20036;-80
2023/08/07 02:00:50;;;;;;;5.32;1.85;;;14.30;99.90;;;;;;5032451;28;20482;-81
2023/08/07 02:03:15;;;;;;;8.10;2.58;;;13.90;99.90;;;;;;5032881;28;20062;-80
2023/08/07 02:05:41;;;;;;;5.03;2.40;;;13.90;99.90;;;;;;5049398;28;20035;-81
2023/08/07 02:08:06;;;;;;;8.85;2.25;;;13.80;99.90;;;;;;5049542;28;20499;-81
2023/08/07 02:10:32;;;;;;;7.65;2.38;;;13.80;99.90;;;;;;5050489;28;20042;-80
2023/08/07 02:12:59;;;;;;;8.80;2.42;;;13.80;99.90;;;;;;5050320;28;20403;-80
2023/08/07 02:15:24;;;;;;;7.63;2.00;;;13.90;99.90;;;;;;5045138;28;20040;-80
2023/08/07 02:17:50;;;;;;;8.98;2.10;;;13.80;99.90;;;;;;5032567;28;20053;-80
2023/08/07 02:20:16;;;;;;;11.05;2.28;;;13.80;99.90;;;;;;5030970;28;20061;-79
2023/08/07 02:22:41;;;;;;;10.45;1.92;;;13.80;99.90;;;;;;5048109;28;20161;-80
2023/08/07 02:25:08;;;;;;;13.40;2.40;;;13.90;99.90;;;;;;5050233;28;20067;-80
2023/08/07 02:27:33;;;;;;;10.15;2.50;;;13.80;99.90;;;;;;5038900;28;20129;-80
2023/08/07 02:29:59;;;;;;;10.35;2.70;;;13.80;99.90;;;;;;5032721;28;20080;-80
2023/08/07 02:32:24;;;;;;;12.75;3.03;;;14.30;99.90;;;;;;5035987;28;20536;-80
2023/08/07 02:34:50;;;;;;;16.92;2.63;;;13.80;99.90;;;;;;5049367;28;20071;-80
2023/08/07 02:37:16;;;;;;;10.63;2.92;;;13.80;99.90;;;;;;5049852;28;20040;-79
2023/08/07 02:39:42;;;;;;;17.20;2.80;;;13.80;99.90;;;;;;5034189;28;20074;-80
2023/08/07 02:42:08;;;;;;;13.02;2.30;;;13.80;99.90;;;;;;5031896;28;20512;-79
2023/08/07 02:44:33;;;;;;;13.73;2.65;;;13.70;99.90;;;;;;5041265;28;20038;-80
2023/08/07 02:46:59;;;;;;;9.27;1.98;;;14.10;99.90;;;;;;5049933;28;20043;-80
2023/08/07 02:49:24;;;;;;;17.95;2.75;;;13.80;99.90;;;;;;5046491;28;20124;-80
2023/08/07 02:51:50;;;;;;;10.45;2.33;;;13.80;99.90;;;;;;5032175;28;20089;-79
2023/08/07 02:54:16;;;;;;;13.73;2.53;;;13.80;99.90;;;;;;5031981;28;20060;-80
2023/08/07 02:56:41;;;;;;;12.60;2.70;;;13.80;99.90;;;;;;5045415;28;20040;-80
2023/08/07 02:59:07;;;;;;;9.50;2.83;;;13.80;99.90;;;;;;5049742;28;20048;-80
2023/08/07 03:01:33;;;;;;;15.10;2.97;;;13.80;99.90;;;;;;5041873;28;20392;-80
2023/08/07 03:03:58;;;;;;;20.35;2.85;;;13.90;99.90;;;;;;5031578;28;20038;-81
2023/08/07 03:06:24;;;;;;;16.58;3.35;;;13.90;99.90;;;;;;5032859;28;20364;-80
2023/08/07 03:08:50;;;;;;;17.05;2.92;;;13.90;99.90;;;;;;5049223;28;20044;-81
2023/08/07 03:11:15;;;;;;;9.90;2.53;;;13.90;99.90;;;;;;5054694;28;20129;-80
2023/08/07 03:13:42;;;;;;;8.50;2.47;;;13.90;99.90;;;;;;5036145;28;20046;-81
2023/08/07 03:16:08;;;;;;;10.50;2.50;;;13.90;99.90;;;;;;5072146;28;20035;-80
2023/08/07 03:18:34;;;;;;;10.82;2.30;;;13.90;99.90;;;;;;5053297;28;20040;-80
2023/08/07 03:20:59;;;;;;;11.10;2.47;;;14.40;99.90;;;;;;5049573;28;20055;-81
2023/08/07 03:23:27;;;;;;;11.65;2.22;;;14.00;99.90;;;;;;5048381;28;20127;-81
2023/08/07 03:26:07;;;;;;;9.85;2.75;;;14.60;99.90;;;;;;5007514;28;20055;-80
2023/08/07 03:28:34;;;;;;;16.88;2.85;;;14.00;99.90;;;;;;5043672;28;20047;-80
2023/08/07 03:31:00;;;;;;;13.35;2.50;;;14.00;99.90;;;;;;5031072;28;20050;-81
2023/08/07 03:33:25;;;;;;;19.30;3.63;;;14.10;99.90;;;;;;5031600;28;20050;-82
2023/08/07 03:35:51;;;;;;;10.63;2.63;;;14.00;99.90;;;;;;5048981;28;20044;-81
2023/08/07 03:38:17;;;;;;;11.38;2.67;;;13.90;99.90;;;;;;5048136;28;20507;-82
2023/08/07 03:40:43;;;;;;;8.25;2.97;;;14.00;99.90;;;;;;5036783;28;20040;-81
2023/08/07 03:43:08;;;;;;;8.60;2.42;;;14.00;99.90;;;;;;5031690;28;20055;-82
2023/08/07 03:45:34;;;;;;;7.40;2.72;;;14.90;99.90;;;;;;5035973;28;20047;-82
2023/08/07 03:48:00;;;;;;;11.77;3.00;;;14.10;99.90;;;;;;5048955;28;20085;-81
2023/08/07 03:50:26;;;;;;;9.15;2.72;;;14.10;99.90;;;;;;5048779;28;20051;-81
2023/08/07 03:52:52;;;;;;;6.45;2.00;;;14.70;99.90;;;;;;5030848;28;20035;-81
2023/08/07 03:55:18;;;;;;;16.52;2.92;;;14.10;99.90;;;;;;5031233;28;20078;-81
2023/08/07 03:57:44;;;;;;;10.38;2.25;;;14.10;99.90;;;;;;5042163;28;20046;-81
2023/08/07 04:00:10;;;;;;;9.55;1.85;;;14.50;99.90;;;;;;5048168;28;20093;-81
2023/08/07 04:02:35;;;;;;;9.38;2.38;;;14.20;99.90;;;;;;5043263;28;20045;-81
2023/08/07 04:05:01;;;;;;;10.82;2.53;;;14.20;99.90;;;;;;5030126;28;20054;-81
2023/08/07 04:07:26;;;;;;;9.90;2.88;;;14.20;99.90;;;;;;5030194;28;20035;-81
2023/08/07 04:09:52;;;;;;;11.15;3.05;;;14.20;99.90;;;;;;5047454;28;20036;-82
2023/08/07 04:12:18;;;;;;;14.60;2.80;;;14.20;99.90;;;;;;5047765;28;20040;-82
2023/08/07 04:14:43;;;;;;;15.30;3.53;;;14.20;99.90;;;;;;5038139;28;20127;-82
2023/08/07 04:17:09;;;;;;;17.75;3.35;;;14.90;99.90;;;;;;5015938;28;20119;-82
2023/08/07 04:19:34;;;;;;;12.57;3.60;;;14.20;99.90;;;;;;5046705;28;20063;-82
2023/08/07 04:22:00;;;;;;;12.15;3.25;;;14.20;99.90;;;;;;5032673;28;20046;-82
2023/08/07 04:24:26;;;;;;;14.70;3.22;;;14.20;99.90;;;;;;5034491;28;20039;-82
2023/08/07 04:26:51;;;;;;;19.48;3.45;;;14.20;99.90;;;;;;5048656;28;20086;-82
2023/08/07 04:29:17;;;;;;;14.98;3.00;;;14.20;99.90;;;;;;5051436;28;20127;-82
2023/08/07 04:31:43;;;;;;;17.92;3.03;;;14.20;99.90;;;;;;5044273;28;20055;-82
2023/08/07 04:34:08;;;;;;;13.32;3.58;;;14.20;99.90;;;;;;5033944;28;20077;-82
2023/08/07 04:36:34;;;;;;;15.68;3.53;;;14.20;99.90;;;;;;5034068;28;20053;-82
2023/08/07 04:38:59;;;;;;;13.32;2.83;;;14.20;99.90;;;;;;5052025;28;20040;-82
2023/08/07 04:41:25;;;;;;;10.07;3.08;;;14.20;99.90;;;;;;5051249;28;20051;-82
2023/08/07 04:43:51;;;;;;;18.92;3.78;;;14.40;99.90;;;;;;5039308;28;20545;-84
2023/08/07 04:46:16;;;;;;;8.98;2.95;;;14.20;99.90;;;;;;5033262;28;20440;-84
2023/08/07 04:48:42;;;;;;;18.08;3.60;;;14.20;99.90;;;;;;5039842;28;20495;-83
2023/08/07 04:51:08;;;;;;;10.13;3.15;;;14.20;99.90;;;;;;5052122;28;20134;-84
2023/08/07 04:53:34;;;;;;;12.32;3.13;;;14.20;99.90;;;;;;5051988;28;20500;-84
2023/08/07 04:56:00;;;;;;;17.15;3.25;;;15.30;99.90;;;;;;5025328;28;20038;-83
2023/08/07 04:58:25;;;;;;;13.25;2.83;;;14.20;99.90;;;;;;5034368;28;20047;-83
2023/08/07 05:00:58;;;;;;;10.05;2.90;;;14.50;99.90;;;;;;5049093;28;20054;-83
2023/08/07 05:03:25;;;;;;;13.07;2.97;;;14.20;99.90;;;;;;5061607;28;20059;-83
2023/08/07 05:05:50;;;;;;;13.80;2.95;;;14.20;99.90;;;;;;5046454;28;20044;-84
2023/08/07 05:08:17;;;;;;;9.70;3.20;;;14.20;99.90;;;;;;5016620;28;20050;-83
2023/08/07 05:10:42;;;;;;;15.63;3.17;;;14.20;99.90;;;;;;5037508;28;20053;-84
2023/08/07 05:13:08;;;;;;;16.75;3.90;;;14.20;99.90;;;;;;5051432;28;20107;-83
2023/08/07 05:15:34;;;;;;;15.57;4.35;;;14.20;99.90;;;;;;5049681;28;20078;-84
2023/08/07 05:17:59;;;;;;;17.83;4.18;;;14.20;99.90;;;;;;5050697;28;20043;-83
2023/08/07 05:20:25;;;;;;;19.40;3.83;;;14.20;99.90;;;;;;5049767;28;20121;-84
2023/08/07 05:22:51;;;;;;;22.00;4.32;;;14.30;99.90;;;;;;5041845;28;20109;-84
2023/08/07 05:25:17;;;;;;;17.77;3.90;;;14.30;99.90;;;;;;5033075;28;20046;-85
2023/08/07 05:27:43;;;;;;;24.45;5.13;;;14.20;99.90;;;;;;5036265;28;20447;-84
2023/08/07 05:30:09;;;;;;;15.20;3.28;;;14.40;99.90;;;;;;5050601;28;20559;-84
2023/08/07 05:32:37;;;;;;;14.13;3.78;;;14.20;99.90;;;;;;5050477;28;20040;-83
2023/08/07 05:35:05;;;;;;;18.80;4.40;;;14.20;99.90;;;;;;5034037;28;20084;-84
2023/08/07 05:37:31;;;;;;;17.63;3.75;;;14.10;99.90;;;;;;5032648;28;20042;-83
2023/08/07 05:39:57;;;;;;;17.50;3.63;;;14.10;99.90;;;;;;5045521;28;20050;-82
2023/08/07 05:42:23;;;;;;;17.08;4.00;;;14.10;99.90;;;;;;5049411;28;20071;-84
2023/08/07 05:44:49;;;;;;;19.15;4.47;;;14.10;99.90;;;;;;5044292;28;20082;-83
2023/08/07 05:47:14;;;;;;;14.50;3.78;;;14.10;99.90;;;;;;5033261;28;20045;-83
2023/08/07 05:49:41;;;;;;;18.13;3.60;;;14.10;99.90;;;;;;5032408;28;20474;-84
2023/08/07 05:52:07;;;;;;;18.60;3.50;;;14.10;99.90;;;;;;5024481;28;20050;-83
2023/08/07 05:54:32;;;;;;;13.35;3.85;;;14.10;99.90;;;;;;5025621;28;20040;-83
2023/08/07 05:56:58;;;;;;;13.05;3.00;;;14.10;99.90;;;;;;5038330;28;20411;-84
2023/08/07 05:59:24;;;;;;;14.45;3.72;;;14.80;99.90;;;;;;5032489;28;20103;-83
2023/08/07 06:01:49;;;;;;;12.40;3.17;;;14.10;99.90;;;;;;5038054;28;20045;-84
2023/08/07 06:04:15;;;;;;;14.13;3.13;;;14.10;99.90;;;;;;5050276;28;20036;-83
2023/08/07 06:06:42;;;;;;;14.57;2.75;;;14.10;99.90;;;;;;5049685;28;20101;-83
2023/08/07 06:09:08;;;;;;;12.93;3.33;;;14.10;99.90;;;;;;5025278;28;20034;-83
2023/08/07 06:11:34;;;;;;;14.00;2.65;;;14.10;99.90;;;;;;5031594;28;20045;-83
2023/08/07 06:13:59;;;;;;;10.75;2.85;;;15.50;99.90;;;;;;5043902;28;20395;-84
2023/08/07 06:16:25;;;;;;;14.90;3.00;;;14.10;99.90;;;;;;5050193;28;20032;-84
2023/08/07 06:18:51;;;;;;;9.95;3.00;;;15.40;99.90;;;;;;5045491;28;20522;-83
2023/08/07 06:21:17;;;;;;;16.90;3.10;;;14.10;99.90;;;;;;5032036;28;20058;-84
2023/08/07 06:23:43;;;;;;;12.50;2.80;;;14.10;99.90;;;;;;5032688;28;20043;-84
2023/08/07 06:26:08;;;;;;;12.40;3.22;;;14.10;99.90;;;;;;5048869;28;20032;-83
2023/08/07 06:28:36;;;;;;;14.52;2.80;;;14.10;99.90;;;;;;5049398;28;20056;-83
2023/08/07 06:31:06;;;;;;;10.95;3.25;;;14.40;99.90;;;;;;5038600;28;20514;-84
2023/08/07 06:33:33;;;;;;;14.00;2.83;;;14.10;99.90;;;;;;5031289;28;20520;-84
2023/08/07 06:35:59;;;;;;;8.60;2.78;;;14.20;99.90;;;;;;5040381;28;20490;-83
2023/08/07 06:38:24;;;;;;;17.33;3.13;;;14.20;99.90;;;;;;5048850;28;20035;-83
2023/08/07 06:40:50;;;;;;;14.27;2.55;;;14.20;99.90;;;;;;5049303;28;20058;-83
2023/08/07 06:43:15;;;;;;;10.15;3.00;;;14.30;99.90;;;;;;5049128;28;20074;-83
2023/08/07 06:45:41;;;;;;;12.00;2.58;;;14.70;99.90;;;;;;5050267;28;20481;-83
2023/08/07 06:48:07;;;;;;;12.82;2.80;;;14.30;99.90;;;;;;5039027;28;20052;-83
2023/08/07 06:50:32;;;;;;;9.38;2.78;;;14.30;99.90;;;;;;5032775;28;20098;-84
2023/08/07 06:52:58;;;;;;;8.32;2.05;;;14.40;99.90;;;;;;5049488;28;20127;-83
2023/08/07 06:55:24;;;;;;;6.60;1.90;;;14.40;99.90;;;;;;5031867;28;20074;-83
2023/08/07 06:57:49;;;;;;;10.35;1.88;;;14.40;99.90;;;;;;5032572;28;20337;-82
2023/08/07 07:00:15;;;;;;;10.60;2.55;;;14.40;99.90;;;;;;5048240;28;20042;-83
2023/08/07 07:02:41;;;;;;;12.10;1.92;;;14.40;99.90;;;;;;5012106;28;20409;-82
2023/08/07 07:05:07;;;;;;;11.02;2.65;;;14.40;99.90;;;;;;5044135;28;20042;-82
2023/08/07 07:07:32;;;;;;;9.48;2.47;;;14.40;99.90;;;;;;5049558;28;20118;-82
2023/08/07 07:10:00;;;;;;;8.65;1.88;;;15.70;99.90;;;;;;5043249;28;20119;-82
2023/08/07 07:12:29;;;;;;;4.75;1.58;;;14.50;99.90;;;;;;5031824;28;20049;-82
2023/08/07 07:14:55;;;;;;;8.65;1.70;;;14.50;99.90;;;;;;5034855;28;20089;-82
2023/08/07 07:17:21;;;;;;;10.15;2.20;;;14.40;99.90;;;;;;5046961;28;20139;-82
2023/08/07 07:19:46;;;;;;;14.63;2.70;;;14.30;99.90;;;;;;5047605;28;20093;-83
2023/08/07 07:22:12;;;;;;;7.03;1.92;;;14.20;99.90;;;;;;5034881;28;20103;-83
2023/08/07 07:24:38;;;;;;;8.55;1.92;;;14.20;99.90;;;;;;5030851;28;20409;-83
2023/08/07 07:27:04;;;;;;;7.85;1.73;;;14.20;99.90;;;;;;5039464;28;20123;-83
2023/08/07 07:29:29;;;;;;;7.60;2.63;;;14.20;99.90;;;;;;5049123;28;20147;-83
2023/08/07 07:31:55;;;;;;;12.40;2.42;;;14.10;99.90;;;;;;5046822;28;20028;-83
2023/08/07 07:34:21;;;;;;;12.00;2.63;;;14.20;99.90;;;;;;5032067;28;20133;-83
2023/08/07 07:36:47;;;;;;;7.55;2.08;;;14.10;99.90;;;;;;5031322;28;20521;-83
2023/08/07 07:39:13;;;;;;;9.52;2.67;;;14.10;99.90;;;;;;5042986;28;20051;-82
2023/08/07 07:41:38;;;;;;;11.02;3.05;;;14.00;99.90;;;;;;5049088;28;20043;-83
2023/08/07 07:44:04;;;;;;;15.00;2.83;;;14.10;99.90;;;;;;5041586;28;20040;-84
2023/08/07 07:46:31;;;;;;;10.13;2.88;;;14.00;99.90;;;;;;5031450;28;20460;-83
2023/08/07 07:48:57;;;;;;;6.55;2.35;;;14.00;99.90;;;;;;5032812;28;20183;-83
2023/08/07 07:51:23;;;;;;;9.07;2.60;;;14.00;99.90;;;;;;5048600;28;20090;-83
2023/08/07 07:53:49;;;;;;;10.32;3.00;;;14.00;99.90;;;;;;5054097;28;20533;-83
2023/08/07 07:56:15;;;;;;;14.10;3.33;;;14.00;99.90;;;;;;5048195;28;20089;-83
2023/08/07 07:58:41;;;;;;;11.63;2.92;;;13.90;99.90;;;;;;5052205;28;20035;-86
2023/08/07 08:01:07;;;;;;;12.65;2.92;;;15.00;99.90;;;;;;5046047;28;20118;-83
2023/08/07 08:03:33;;;;;;;7.00;2.53;;;13.90;99.90;;;;;;5059603;28;20464;-83
2023/08/07 08:05:58;;;;;;;11.30;3.17;;;13.80;99.90;;;;;;5051174;28;20032;-83
2023/08/07 08:08:24;;;;;;;8.20;3.22;;;13.70;99.90;;;;;;5035497;28;20038;-83
2023/08/07 08:10:51;;;;;;;8.60;2.97;;;14.40;99.90;;;;;;5033703;28;20473;-83
2023/08/07 08:13:17;;;;;;;8.52;3.28;;;13.70;99.90;;;;;;5046173;28;20454;-83
2023/08/07 08:15:43;;;;;;;9.85;2.95;;;13.60;99.90;;;;;;5052494;28;20040;-83
2023/08/07 08:18:09;;;;;;;11.05;3.88;;;13.60;99.90;;;;;;5045262;28;20040;-83
2023/08/07 08:20:34;;;;;;;15.43;2.78;;;14.90;99.90;;;;;;5033866;28;20058;-82
2023/08/07 08:23:00;;;;;;;12.55;3.00;;;13.50;99.90;;;;;;5035493;28;20042;-82
2023/08/07 08:25:26;;;;;;;13.73;4.03;;;13.50;99.90;;;;;;5052037;28;20476;-83
2023/08/07 08:27:51;;;;;;;13.85;3.08;;;14.80;99.90;;;;;;5051589;28;20052;-82
2023/08/07 08:30:17;;;;;;;18.00;3.78;;;13.60;99.90;;;;;;5040369;28;20052;-82
2023/08/07 08:32:43;;;;;;;12.73;3.20;;;13.60;99.90;;;;;;5034779;28;20497;-82
2023/08/07 08:35:09;;;;;;;13.70;3.35;;;13.70;99.90;;;;;;5042416;28;20053;-82
2023/08/07 08:37:35;;;;;;;14.55;3.53;;;13.70;99.90;;;;;;5062921;28;20043;-82
2023/08/07 08:40:01;;;;;;;12.63;3.42;;;14.40;99.90;;;;;;5057748;28;20087;-82
2023/08/07 08:42:27;;;;;;;16.85;3.05;;;13.80;99.90;;;;;;5026037;28;20074;-82
2023/08/07 08:44:59;;;;;;;16.73;3.80;;;14.80;99.90;;;;;;5034248;28;20034;-83
2023/08/07 08:47:26;;;;;;;15.63;3.40;;;14.10;99.90;;;;;;5049054;28;20511;-83
2023/08/07 08:50:04;;;;;;;13.00;2.85;;;14.20;99.90;;;;;;5051859;28;20096;-83
2023/08/07 08:52:32;;;;;;;9.90;2.22;;;14.30;99.90;;;;;;5026641;28;20133;-86
2023/08/07 08:54:58;;;;;;;12.35;2.40;;;14.40;99.90;;;;;;5033174;28;20464;-83
2023/08/07 08:57:26;;;;;;;12.40;2.55;;;14.50;99.90;;;;;;5048350;28;20128;-82
2023/08/07 08:59:52;;;;;;;11.23;2.58;;;14.50;99.90;;;;;;5051494;28;20115;-82
2023/08/07 09:02:17;;;;;;;10.55;2.05;;;14.40;99.90;;;;;;5041847;28;20453;-83
2023/08/07 09:04:44;;;;;;;8.05;2.13;;;14.50;99.90;;;;;;5061076;28;20411;-83
2023/08/07 09:07:13;;;;;;;9.27;2.20;;;15.20;99.90;;;;;;5047556;28;20051;-82
2023/08/07 09:09:40;;;;;;;10.73;2.78;;;14.50;99.90;;;;;;5033505;28;20127;-83
2023/08/07 09:12:08;;;;;;;7.80;1.45;;;14.50;99.90;;;;;;5033188;28;20053;-83
2023/08/07 09:14:37;;;;;;;10.80;1.90;;;14.60;99.90;;;;;;5051258;28;20040;-84
2023/08/07 09:17:04;;;;;;;9.95;2.00;;;14.80;99.90;;;;;;5049463;28;20052;-82
2023/08/07 09:19:30;;;;;;;8.45;2.15;;;14.80;99.90;;;;;;5033639;28;20058;-82
2023/08/07 09:21:56;;;;;;;7.43;2.08;;;14.80;99.90;;;;;;5033478;28;20042;-82
2023/08/07 09:24:22;;;;;;;12.20;2.33;;;15.30;99.90;;;;;;5043245;28;20117;-81
2023/08/07 09:26:50;;;;;;;6.53;1.70;;;15.90;99.90;;;;;;5050828;28;20433;-82
2023/08/07 09:29:16;;;;;;;10.10;2.17;;;14.90;99.90;;;;;;5045394;28;20036;-83
2023/08/07 09:31:46;;;;;;;14.65;3.03;;;14.90;99.90;;;;;;5032974;28;20115;-80
2023/08/07 09:34:13;;;;;;;13.27;2.92;;;15.00;99.90;;;;;;5036031;28;20050;-82
2023/08/07 09:36:40;;;;;;;9.50;2.47;;;15.00;99.90;;;;;;5048974;28;20096;-81
2023/08/07 09:39:06;;;;;;;11.38;2.30;;;14.90;99.90;;;;;;5050933;28;20111;-81
2023/08/07 09:41:32;;;;;;;9.98;2.20;;;14.90;99.90;;;;;;5035039;28;20584;-81
2023/08/07 09:43:58;;;;;;;9.40;2.22;;;14.90;99.90;;;;;;5032717;28;20045;-80
2023/08/07 09:46:26;;;;;;;12.85;2.10;;;14.90;99.90;;;;;;5075896;28;20084;-82
2023/08/07 09:48:51;;;;;;;12.63;3.08;;;15.10;99.90;;;;;;5033339;28;20034;-81
2023/08/07 09:51:17;;;;;;;13.65;2.97;;;15.20;99.90;;;;;;5037045;28;20069;-82
2023/08/07 09:53:43;;;;;;;7.43;1.80;;;15.20;99.90;;;;;;5050646;28;20383;-81
2023/08/07 09:56:09;;;;;;;10.50;2.45;;;15.30;99.90;;;;;;5050644;28;20121;-81
2023/08/07 09:58:35;;;;;;;7.65;1.83;;;15.30;99.90;;;;;;5034160;28;20114;-81
2023/08/07 10:01:03;;;;;;;13.40;2.00;;;15.30;99.90;;;;;;5033144;28;20607;-81
2023/08/07 10:03:30;;;;;;;10.43;2.65;;;15.20;99.90;;;;;;5044176;28;20049;-81
2023/08/07 10:05:56;;;;;;;6.43;1.80;;;16.10;99.90;;;;;;5049998;28;20028;-81
2023/08/07 10:08:22;;;;;;;13.70;2.78;;;15.20;99.90;;;;;;5045146;28;20434;-81
2023/08/07 10:10:47;;;;;;;8.85;2.28;;;15.20;99.90;;;;;;5033184;28;20065;-82
2023/08/07 10:13:14;;;;;;;10.13;2.20;;;15.20;99.90;;;;;;5032467;28;20147;-81
2023/08/07 10:15:42;;;;;;;7.65;2.30;;;15.30;99.90;;;;;;5050670;28;20039;-81
2023/08/07 10:18:08;;;;;;;7.65;2.38;;;15.20;99.90;;;;;;5055049;28;20502;-80
2023/08/07 10:20:34;;;;;;;14.20;3.35;;;15.30;99.90;;;;;;5046102;28;20047;-82
2023/08/07 10:23:10;;;;;;;10.90;2.28;;;15.40;99.90;;;;;;5035347;28;20065;-81
2023/08/07 10:25:43;;;;;;;11.40;2.05;;;15.50;99.90;;;;;;5033021;28;20081;-81
2023/08/07 10:28:13;;;;;;;11.30;2.25;;;15.60;99.90;;;;;;5033242;28;20050;-82
2023/08/07 10:30:41;;;;;;;7.00;2.38;;;16.30;99.90;;;;;;5047503;28;20503;-80
2023/08/07 10:33:09;;;;;;;18.10;2.42;;;15.60;99.90;;;;;;5049746;28;20040;-83
2023/08/07 10:35:34;;;;;;;8.40;2.15;;;15.50;99.90;;;;;;5038322;28;20036;-81
2023/08/07 10:38:08;;;;;;;10.98;3.08;;;15.50;99.90;;;;;;5032563;28;20056;-81
2023/08/07 10:40:34;;;;;;;7.87;2.47;;;15.50;99.90;;;;;;5040654;28;20047;-82
2023/08/07 10:43:11;;;;;;;10.32;2.25;;;15.60;99.90;;;;;;5049716;28;20043;-81
2023/08/07 10:45:38;;;;;;;9.45;2.17;;;15.70;99.90;;;;;;5037817;28;20404;-81
2023/08/07 10:48:18;;;;;;;12.02;2.55;;;15.70;99.90;;;;;;5031785;28;20383;-82
2023/08/07 10:50:57;;;;;;;9.38;1.65;;;15.80;99.90;;;;;;5048174;28;20424;-82
2023/08/07 10:53:30;;;;;;;7.35;1.92;;;16.00;99.90;;;;;;5007532;28;20093;-83
2023/08/07 10:55:58;;;;;;;8.20;1.90;;;16.00;99.90;;;;;;5048971;28;20040;-82
2023/08/07 10:58:25;;;;;;;7.20;1.75;;;16.00;99.90;;;;;;5048464;28;20047;-82
2023/08/07 11:01:12;;;;;;;9.57;1.70;;;16.00;99.90;;;;;;5032066;28;20554;-82
2023/08/07 11:03:42;;;;;;;11.30;1.38;;;16.10;99.90;;;;;;5042221;28;20058;-82
2023/08/07 11:06:09;;;;;;;10.88;2.15;;;16.20;99.90;;;;;;5049279;28;20040;-82
2023/08/07 11:08:35;;;;;;;12.70;1.90;;;16.10;99.90;;;;;;5041009;28;20040;-82
2023/08/07 11:11:05;;;;;;;6.50;1.60;;;16.10;99.90;;;;;;5032074;28;20446;-82
2023/08/07 11:13:32;;;;;;;5.93;1.80;;;16.00;99.90;;;;;;5035612;28;20062;-83
2023/08/07 11:15:59;;;;;;;7.85;1.50;;;16.00;99.90;;;;;;5048753;28;20032;-82
2023/08/07 11:18:25;;;;;;;5.70;1.50;;;16.10;99.90;;;;;;5049276;28;20051;-82
2023/08/07 11:20:52;;;;;;;5.32;1.52;;;16.20;99.90;;;;;;5023701;28;20050;-82
2023/08/07 11:23:27;;;;;;;7.00;1.67;;;16.10;99.90;;;;;;5030046;28;20061;-83
2023/08/07 11:25:53;;;;;;;8.93;2.03;;;16.20;99.90;;;;;;5023890;28;20042;-82
2023/08/07 11:28:19;;;;;;;5.65;1.52;;;16.10;99.90;;;;;;5031367;28;20042;-83
2023/08/07 11:30:48;;;;;;;10.43;1.45;;;16.10;99.90;;;;;;5043854;28;20049;-82
2023/08/07 11:33:14;;;;;;;5.80;1.70;;;16.20;99.90;;;;;;5049087;28;20040;-82
2023/08/07 11:35:43;;;;;;;11.15;2.28;;;16.30;99.90;;;;;;5040527;28;20040;-82
2023/08/07 11:38:09;;;;;;;3.70;1.52;;;16.10;99.90;;;;;;5031333;28;20476;-82
2023/08/07 11:40:35;;;;;;;9.43;2.20;;;16.20;99.90;;;;;;5035719;28;20141;-82
2023/08/07 11:43:01;;;;;;;4.90;1.60;;;16.30;99.90;;;;;;5048007;28;20116;-82
2023/08/07 11:45:27;;;;;;;6.43;2.03;;;16.30;99.90;;;;;;5048616;28;20115;-81
2023/08/07 11:47:55;;;;;;;6.88;1.48;;;16.40;99.90;;;;;;5007077;28;20226;-83
2023/08/07 11:50:22;;;;;;;10.20;1.77;;;16.40;99.90;;;;;;5048573;28;20075;-81
2023/08/07 11:52:48;;;;;;;8.10;2.33;;;16.40;99.90;;;;;;5036695;28;20458;-83
2023/08/07 11:55:15;;;;;;;3.90;1.70;;;16.40;99.90;;;;;;5031019;28;20485;-83
2023/08/07 11:57:42;;;;;;;9.07;1.65;;;16.30;99.90;;;;;;5047281;28;20050;-82
2023/08/07 12:00:13;;;;;;;10.32;1.73;;;16.60;99.90;;;;;;5055984;28;20055;-82
2023/08/07 12:02:42;;;;;;;6.03;1.70;;;16.50;99.90;;;;;;5044683;28;20506;-83
2023/08/07 12:05:12;;;;;;;10.10;2.13;;;16.40;99.90;;;;;;5029274;28;20061;-83
2023/08/07 12:07:38;;;;;;;8.90;1.98;;;16.40;99.90;;;;;;5035682;28;20053;-82
2023/08/07 12:10:09;;;;;;;9.20;1.92;;;16.30;99.90;;;;;;5048634;28;20050;-82
2023/08/07 12:12:38;;;;;;;9.13;2.10;;;16.30;99.90;;;;;;5047213;28;20115;-82
2023/08/07 12:15:10;;;;;;;8.63;2.17;;;16.50;99.90;;;;;;5030918;28;20053;-83
2023/08/07 12:17:38;;;;;;;7.97;2.10;;;16.00;99.90;;;;;;5032520;28;20046;-82
2023/08/07 12:20:10;;;;;;;7.53;2.40;;;15.80;99.90;;;;;;5047915;28;20052;-82
2023/08/07 12:22:35;;;;;;;8.25;2.60;;;15.60;99.90;;;;;;5048727;28;20047;-83
2023/08/07 12:25:01;;;;;;;7.43;2.38;;;15.50;99.90;;;;;;5048456;28;20035;-82
2023/08/07 12:27:27;;;;;;;11.13;2.63;;;15.40;99.90;;;;;;5047917;28;20498;-83
2023/08/07 12:29:53;;;;;;;5.35;1.48;;;15.30;99.90;;;;;;5036492;28;20048;-82
2023/08/07 12:32:19;;;;;;;9.70;1.45;;;15.40;99.90;;;;;;5030953;28;20121;-82
2023/08/07 12:34:44;;;;;;;7.72;1.23;;;15.50;99.90;;;;;;5036369;28;20042;-82
2023/08/07 12:37:10;;;;;;;6.65;1.20;;;16.20;99.90;;;;;;5048418;28;20098;-82
2023/08/07 12:39:36;;;;;;;6.53;1.90;;;15.90;99.90;;;;;;5047829;28;20040;-82